createdAt,value
2018-05-09T00:00:11.001Z,1000.03
2018-05-09T00:01:10.995Z,1000.03
2018-05-09T00:02:10.981Z,1000.02
2018-05-09T00:03:10.969Z,1000.04
2018-05-09T00:04:11.162Z,1000
2018-05-09T00:05:10.951Z,999.99
2018-05-09T00:06:10.939Z,999.95
2018-05-09T00:07:10.927Z,999.99
2018-05-09T00:08:10.918Z,999.96
2018-05-09T00:09:10.906Z,999.98
2018-05-09T00:10:10.892Z,999.97
2018-05-09T00:11:10.881Z,999.94
2018-05-09T00:12:10.880Z,999.97
2018-05-09T00:13:10.864Z,999.97
2018-05-09T00:14:10.848Z,999.98
2018-05-09T00:15:10.841Z,999.98
2018-05-09T00:16:10.827Z,999.98
2018-05-09T00:17:10.815Z,999.92
2018-05-09T00:18:10.802Z,999.97
2018-05-09T00:19:10.795Z,999.92
2018-05-09T00:20:10.783Z,999.93
2018-05-09T00:21:10.769Z,999.91
2018-05-09T00:22:10.759Z,999.93
2018-05-09T00:23:10.745Z,999.92
2018-05-09T00:24:10.735Z,999.89
2018-05-09T00:25:10.724Z,999.91
2018-05-09T00:26:10.713Z,999.88
2018-05-09T00:27:10.702Z,999.88
2018-05-09T00:28:10.692Z,999.9
2018-05-09T00:29:10.680Z,999.9
2018-05-09T00:30:10.668Z,999.9
2018-05-09T00:31:10.661Z,999.89
2018-05-09T00:32:10.647Z,999.88
2018-05-09T00:33:10.634Z,999.89
2018-05-09T00:34:10.627Z,999.92
2018-05-09T00:35:10.610Z,999.9
2018-05-09T00:36:10.602Z,999.9
2018-05-09T00:37:10.588Z,999.93
2018-05-09T00:38:10.574Z,999.92
2018-05-09T00:39:10.563Z,999.91
2018-05-09T00:40:10.551Z,999.89
2018-05-09T00:41:10.542Z,999.91
2018-05-09T00:42:10.532Z,999.9
2018-05-09T00:43:10.517Z,999.92
2018-05-09T00:44:10.508Z,999.9
2018-05-09T00:45:10.495Z,999.9
2018-05-09T00:46:10.484Z,999.86
2018-05-09T00:47:10.474Z,999.86
2018-05-09T00:48:10.466Z,999.86
2018-05-09T00:49:10.455Z,999.84
2018-05-09T00:50:10.501Z,999.84
2018-05-09T00:51:10.432Z,999.82
2018-05-09T00:52:10.414Z,999.77
2018-05-09T00:53:10.410Z,999.79
2018-05-09T00:54:10.394Z,999.77
2018-05-09T00:55:10.381Z,999.79
2018-05-09T00:56:10.367Z,999.77
2018-05-09T00:57:10.356Z,999.74
2018-05-09T00:58:10.344Z,999.74
2018-05-09T00:59:10.332Z,999.75
2018-05-09T01:00:10.318Z,999.73
2018-05-09T01:01:10.309Z,999.7
2018-05-09T01:02:10.306Z,999.73
2018-05-09T01:03:10.292Z,999.66
2018-05-09T01:04:10.272Z,999.69
2018-05-09T01:05:10.261Z,999.7
2018-05-09T01:06:10.250Z,999.66
2018-05-09T01:07:10.238Z,999.63
2018-05-09T01:08:10.226Z,999.62
2018-05-09T01:09:10.216Z,999.63
2018-05-09T01:10:10.202Z,999.64
2018-05-09T01:11:10.190Z,999.65
2018-05-09T01:12:10.175Z,999.64
2018-05-09T01:13:10.168Z,999.64
2018-05-09T01:14:10.153Z,999.64
2018-05-09T01:15:10.145Z,999.66
2018-05-09T01:16:10.127Z,999.65
2018-05-09T01:17:10.118Z,999.67
2018-05-09T01:18:10.105Z,999.65
2018-05-09T01:19:10.096Z,999.64
2018-05-09T01:20:10.083Z,999.62
2018-05-09T01:21:10.069Z,999.67
2018-05-09T01:22:10.056Z,999.62
2018-05-09T01:23:10.045Z,999.66
2018-05-09T01:24:10.038Z,999.6
2018-05-09T01:25:10.021Z,999.65
2018-05-09T01:26:10.010Z,999.65
2018-05-09T01:27:09.996Z,999.63
2018-05-09T01:28:09.983Z,999.61
2018-05-09T01:29:09.970Z,999.65
2018-05-09T01:30:09.959Z,999.63
2018-05-09T01:31:09.946Z,999.56
2018-05-09T01:32:09.934Z,999.56
2018-05-09T01:33:09.922Z,999.59
2018-05-09T01:34:09.910Z,999.59
2018-05-09T01:35:09.897Z,999.6
2018-05-09T01:36:09.885Z,999.57
2018-05-09T01:37:09.872Z,999.62
2018-05-09T01:38:09.864Z,999.6
2018-05-09T01:39:09.849Z,999.59
2018-05-09T01:40:09.839Z,999.6
2018-05-09T01:41:09.825Z,999.61
2018-05-09T01:42:09.811Z,999.59
2018-05-09T01:43:09.800Z,999.54
2018-05-09T01:44:09.787Z,999.54
2018-05-09T01:45:09.774Z,999.56
2018-05-09T01:46:09.761Z,999.51
2018-05-09T01:47:09.753Z,999.52
2018-05-09T01:48:09.737Z,999.53
2018-05-09T01:49:09.723Z,999.56
2018-05-09T01:50:09.715Z,999.52
2018-05-09T01:51:09.781Z,999.52
2018-05-09T01:52:09.688Z,999.52
2018-05-09T01:53:09.674Z,999.5
2018-05-09T01:54:09.663Z,999.53
2018-05-09T01:55:09.650Z,999.54
2018-05-09T01:56:09.638Z,999.57
2018-05-09T01:57:09.625Z,999.56
2018-05-09T01:58:09.612Z,999.55
2018-05-09T01:59:09.606Z,999.58
2018-05-09T02:00:09.604Z,999.55
2018-05-09T02:01:09.579Z,999.59
2018-05-09T02:02:09.560Z,999.57
2018-05-09T02:03:09.549Z,999.57
2018-05-09T02:04:09.740Z,999.54
2018-05-09T02:05:09.524Z,999.52
2018-05-09T02:06:09.534Z,999.52
2018-05-09T02:07:09.503Z,999.55
2018-05-09T02:08:09.487Z,999.52
2018-05-09T02:09:09.472Z,999.51
2018-05-09T02:10:09.460Z,999.53
2018-05-09T02:11:09.448Z,999.55
2018-05-09T02:12:09.434Z,999.55
2018-05-09T02:13:09.421Z,999.54
2018-05-09T02:14:09.409Z,999.51
2018-05-09T02:15:09.395Z,999.47
2018-05-09T02:16:09.387Z,999.47
2018-05-09T02:17:09.368Z,999.48
2018-05-09T02:18:09.357Z,999.48
2018-05-09T02:19:09.348Z,999.53
2018-05-09T02:20:09.332Z,999.54
2018-05-09T02:21:09.320Z,999.49
2018-05-09T02:22:09.307Z,999.51
2018-05-09T02:23:09.294Z,999.56
2018-05-09T02:24:09.334Z,999.51
2018-05-09T02:25:09.275Z,999.57
2018-05-09T02:26:09.259Z,999.53
2018-05-09T02:27:09.243Z,999.56
2018-05-09T02:28:09.230Z,999.57
2018-05-09T02:29:09.218Z,999.52
2018-05-09T02:30:09.214Z,999.52
2018-05-09T02:31:09.238Z,999.53
2018-05-09T02:32:09.179Z,999.53
2018-05-09T02:33:09.171Z,999.52
2018-05-09T02:34:09.156Z,999.55
2018-05-09T02:35:09.141Z,999.53
2018-05-09T02:36:09.127Z,999.47
2018-05-09T02:37:09.116Z,999.49
2018-05-09T02:38:09.112Z,999.47
2018-05-09T02:39:09.097Z,999.52
2018-05-09T02:40:09.076Z,999.5
2018-05-09T02:41:09.064Z,999.47
2018-05-09T02:42:09.049Z,999.45
2018-05-09T02:43:09.039Z,999.44
2018-05-09T02:44:09.025Z,999.42
2018-05-09T02:45:09.015Z,999.45
2018-05-09T02:46:08.999Z,999.45
2018-05-09T02:47:08.996Z,999.42
2018-05-09T02:48:08.973Z,999.47
2018-05-09T02:49:08.961Z,999.44
2018-05-09T02:50:08.946Z,999.45
2018-05-09T02:51:08.932Z,999.47
2018-05-09T02:52:08.922Z,999.47
2018-05-09T02:53:08.906Z,999.43
2018-05-09T02:54:08.895Z,999.49
2018-05-09T02:55:08.879Z,999.46
2018-05-09T02:56:08.870Z,999.46
2018-05-09T02:57:08.855Z,999.45
2018-05-09T02:58:08.843Z,999.47
2018-05-09T02:59:08.829Z,999.43
2018-05-09T03:00:08.816Z,999.45
2018-05-09T03:01:08.803Z,999.44
2018-05-09T03:02:08.788Z,999.46
2018-05-09T03:03:08.780Z,999.48
2018-05-09T03:04:08.761Z,999.45
2018-05-09T03:05:08.748Z,999.49
2018-05-09T03:06:08.736Z,999.44
2018-05-09T03:07:08.724Z,999.45
2018-05-09T03:08:08.709Z,999.45
2018-05-09T03:09:08.698Z,999.4
2018-05-09T03:10:08.687Z,999.4
2018-05-09T03:11:08.667Z,999.4
2018-05-09T03:12:08.657Z,999.38
2018-05-09T03:13:08.647Z,999.41
2018-05-09T03:14:08.632Z,999.4
2018-05-09T03:15:08.617Z,999.44
2018-05-09T03:16:08.605Z,999.43
2018-05-09T03:17:08.590Z,999.44
2018-05-09T03:18:08.577Z,999.43
2018-05-09T03:19:08.564Z,999.46
2018-05-09T03:20:08.552Z,999.44
2018-05-09T03:21:08.539Z,999.43
2018-05-09T03:22:08.525Z,999.42
2018-05-09T03:23:08.511Z,999.41
2018-05-09T03:24:08.498Z,999.43
2018-05-09T03:25:08.483Z,999.4
2018-05-09T03:26:08.470Z,999.38
2018-05-09T03:27:08.457Z,999.41
2018-05-09T03:28:08.444Z,999.42
2018-05-09T03:29:08.433Z,999.4
2018-05-09T03:30:08.428Z,999.41
2018-05-09T03:31:08.408Z,999.44
2018-05-09T03:32:08.398Z,999.41
2018-05-09T03:33:08.377Z,999.44
2018-05-09T03:34:08.364Z,999.43
2018-05-09T03:35:08.349Z,999.42
2018-05-09T03:36:08.338Z,999.45
2018-05-09T03:37:08.324Z,999.47
2018-05-09T03:38:08.314Z,999.46
2018-05-09T03:39:08.299Z,999.45
2018-05-09T03:40:08.287Z,999.45
2018-05-09T03:41:08.270Z,999.44
2018-05-09T03:42:08.258Z,999.46
2018-05-09T03:43:08.243Z,999.47
2018-05-09T03:44:08.230Z,999.46
2018-05-09T03:45:08.217Z,999.46
2018-05-09T03:46:08.206Z,999.45
2018-05-09T03:47:08.189Z,999.46
2018-05-09T03:48:08.180Z,999.51
2018-05-09T03:49:08.164Z,999.47
2018-05-09T03:50:08.149Z,999.49
2018-05-09T03:51:08.137Z,999.51
2018-05-09T03:52:08.124Z,999.54
2018-05-09T03:53:08.110Z,999.53
2018-05-09T03:54:08.098Z,999.55
2018-05-09T03:55:08.082Z,999.56
2018-05-09T03:56:08.070Z,999.53
2018-05-09T03:57:08.056Z,999.48
2018-05-09T03:58:08.044Z,999.56
2018-05-09T03:59:08.032Z,999.55
2018-05-09T04:00:08.016Z,999.53
2018-05-09T04:01:08.005Z,999.58
2018-05-09T04:02:07.990Z,999.52
2018-05-09T04:03:07.975Z,999.53
2018-05-09T04:04:08.166Z,999.56
2018-05-09T04:05:07.948Z,999.59
2018-05-09T04:06:07.936Z,999.61
2018-05-09T04:07:07.969Z,999.57
2018-05-09T04:08:07.911Z,999.55
2018-05-09T04:09:07.895Z,999.54
2018-05-09T04:10:07.880Z,999.54
2018-05-09T04:11:07.867Z,999.56
2018-05-09T04:12:07.855Z,999.56
2018-05-09T04:13:07.941Z,999.55
2018-05-09T04:14:07.826Z,999.57
2018-05-09T04:15:07.816Z,999.57
2018-05-09T04:16:07.801Z,999.59
2018-05-09T04:17:07.790Z,999.62
2018-05-09T04:18:07.774Z,999.64
2018-05-09T04:19:07.760Z,999.65
2018-05-09T04:20:07.750Z,999.62
2018-05-09T04:21:07.734Z,999.64
2018-05-09T04:22:07.720Z,999.67
2018-05-09T04:23:07.706Z,999.67
2018-05-09T04:24:07.694Z,999.67
2018-05-09T04:25:07.682Z,999.7
2018-05-09T04:26:07.668Z,999.72
2018-05-09T04:27:07.656Z,999.7
2018-05-09T04:28:07.697Z,999.71
2018-05-09T04:29:07.630Z,999.72
2018-05-09T04:30:07.623Z,999.73
2018-05-09T04:31:07.604Z,999.79
2018-05-09T04:32:07.587Z,999.81
2018-05-09T04:33:07.579Z,999.8
2018-05-09T04:34:07.561Z,999.8
2018-05-09T04:35:07.549Z,999.79
2018-05-09T04:36:07.572Z,999.8
2018-05-09T04:37:07.521Z,999.83
2018-05-09T04:38:07.508Z,999.8
2018-05-09T04:39:07.496Z,999.81
2018-05-09T04:40:07.480Z,999.82
2018-05-09T04:41:07.470Z,999.81
2018-05-09T04:42:07.550Z,999.79
2018-05-09T04:43:07.440Z,999.8
2018-05-09T04:44:07.427Z,999.81
2018-05-09T04:45:07.417Z,999.78
2018-05-09T04:46:07.400Z,999.76
2018-05-09T04:47:07.387Z,999.8
2018-05-09T04:48:07.380Z,999.75
2018-05-09T04:49:07.364Z,999.76
2018-05-09T04:50:07.347Z,999.77
2018-05-09T04:51:07.335Z,999.73
2018-05-09T04:52:07.320Z,999.77
2018-05-09T04:53:07.309Z,999.72
2018-05-09T04:54:07.293Z,999.75
2018-05-09T04:55:07.281Z,999.74
2018-05-09T04:56:07.267Z,999.73
2018-05-09T04:57:07.253Z,999.74
2018-05-09T04:58:07.244Z,999.73
2018-05-09T04:59:07.230Z,999.76
2018-05-09T05:00:07.215Z,999.76
2018-05-09T05:01:07.201Z,999.76
2018-05-09T05:02:07.188Z,999.74
2018-05-09T05:03:07.173Z,999.76
2018-05-09T05:04:07.161Z,999.71
2018-05-09T05:05:07.146Z,999.73
2018-05-09T05:06:07.135Z,999.74
2018-05-09T05:07:07.196Z,999.76
2018-05-09T05:08:07.112Z,999.75
2018-05-09T05:09:07.099Z,999.78
2018-05-09T05:10:07.080Z,999.78
2018-05-09T05:11:07.076Z,999.74
2018-05-09T05:12:07.054Z,999.76
2018-05-09T05:13:07.042Z,999.78
2018-05-09T05:14:07.027Z,999.83
2018-05-09T05:15:07.016Z,999.85
2018-05-09T05:16:07.003Z,999.85
2018-05-09T05:17:06.991Z,999.85
2018-05-09T05:18:06.980Z,999.85
2018-05-09T05:19:06.964Z,999.86
2018-05-09T05:20:06.951Z,999.86
2018-05-09T05:21:06.938Z,999.84
2018-05-09T05:22:06.923Z,999.86
2018-05-09T05:23:06.914Z,999.82
2018-05-09T05:24:06.896Z,999.85
2018-05-09T05:25:06.897Z,999.84
2018-05-09T05:26:06.874Z,999.84
2018-05-09T05:27:06.945Z,999.81
2018-05-09T05:28:06.845Z,999.83
2018-05-09T05:29:06.837Z,999.86
2018-05-09T05:30:06.822Z,999.88
2018-05-09T05:31:06.810Z,999.89
2018-05-09T05:32:06.794Z,999.88
2018-05-09T05:33:06.784Z,999.92
2018-05-09T05:34:06.768Z,999.96
2018-05-09T05:35:06.761Z,999.96
2018-05-09T05:36:06.743Z,999.98
2018-05-09T05:37:06.731Z,999.98
2018-05-09T05:38:06.720Z,999.94
2018-05-09T05:39:06.706Z,999.93
2018-05-09T05:40:06.694Z,999.93
2018-05-09T05:41:06.679Z,999.97
2018-05-09T05:42:06.669Z,999.94
2018-05-09T05:43:06.659Z,999.94
2018-05-09T05:44:06.649Z,999.96
2018-05-09T05:45:06.726Z,999.98
2018-05-09T05:46:06.618Z,1000
2018-05-09T05:47:06.606Z,999.99
2018-05-09T05:48:06.593Z,1000.04
2018-05-09T05:49:06.583Z,1000.03
2018-05-09T05:50:06.569Z,1000.04
2018-05-09T05:51:06.558Z,1000.03
2018-05-09T05:52:06.542Z,1000.01
2018-05-09T05:53:06.531Z,999.99
2018-05-09T05:54:06.521Z,999.98
2018-05-09T05:55:06.507Z,999.97
2018-05-09T05:56:06.515Z,999.99
2018-05-09T05:57:06.483Z,999.98
2018-05-09T05:58:06.471Z,999.97
2018-05-09T05:59:06.460Z,1000.01
2018-05-09T06:00:06.445Z,999.95
2018-05-09T06:01:06.433Z,999.96
2018-05-09T06:02:06.423Z,999.97
2018-05-09T06:03:06.491Z,999.95
2018-05-09T06:04:06.397Z,999.92
2018-05-09T06:05:06.386Z,999.94
2018-05-09T06:06:06.373Z,999.96
2018-05-09T06:07:06.362Z,999.95
2018-05-09T06:08:06.351Z,999.95
2018-05-09T06:09:06.339Z,999.94
2018-05-09T06:10:06.331Z,999.95
2018-05-09T06:11:06.313Z,999.93
2018-05-09T06:12:06.303Z,999.95
2018-05-09T06:13:06.292Z,999.94
2018-05-09T06:14:06.278Z,999.94
2018-05-09T06:15:06.272Z,999.91
2018-05-09T06:16:06.257Z,999.95
2018-05-09T06:17:06.313Z,999.99
2018-05-09T06:18:06.232Z,1000
2018-05-09T06:19:06.222Z,1000.02
2018-05-09T06:20:06.209Z,1000.06
2018-05-09T06:21:06.197Z,1000.08
2018-05-09T06:22:06.188Z,1000.01
2018-05-09T06:23:06.181Z,1000.05
2018-05-09T06:24:06.393Z,1000.02
2018-05-09T06:25:06.152Z,1000.04
2018-05-09T06:26:06.146Z,999.98
2018-05-09T06:27:06.128Z,999.99
2018-05-09T06:28:06.118Z,999.98
2018-05-09T06:29:06.110Z,999.97
2018-05-09T06:30:06.097Z,1000
2018-05-09T06:31:06.083Z,999.95
2018-05-09T06:32:06.070Z,999.95
2018-05-09T06:33:06.064Z,999.94
2018-05-09T06:34:06.054Z,999.94
2018-05-09T06:35:06.041Z,999.95
2018-05-09T06:36:06.028Z,999.96
2018-05-09T06:37:06.015Z,1000.01
2018-05-09T06:38:06.005Z,1000.01
2018-05-09T06:39:05.994Z,1000.07
2018-05-09T06:40:05.981Z,1000.06
2018-05-09T06:41:05.972Z,1000.07
2018-05-09T06:42:05.959Z,1000.07
2018-05-09T06:43:05.948Z,1000.1
2018-05-09T06:44:05.937Z,1000.1
2018-05-09T06:45:05.928Z,1000.13
2018-05-09T06:46:05.916Z,1000.12
2018-05-09T06:47:05.903Z,1000.13
2018-05-09T06:48:05.896Z,1000.13
2018-05-09T06:49:05.884Z,1000.14
2018-05-09T06:50:06.040Z,1000.2
2018-05-09T06:51:05.860Z,1000.21
2018-05-09T06:52:05.851Z,1000.18
2018-05-09T06:53:05.842Z,1000.2
2018-05-09T06:54:05.828Z,1000.21
2018-05-09T06:55:05.818Z,1000.22
2018-05-09T06:56:05.808Z,1000.22
2018-05-09T06:57:05.799Z,1000.24
2018-05-09T06:58:05.792Z,1000.26
2018-05-09T06:59:05.820Z,1000.26
2018-05-09T07:00:05.771Z,1000.26
2018-05-09T07:01:05.757Z,1000.24
2018-05-09T07:02:05.745Z,1000.28
2018-05-09T07:03:05.737Z,1000.28
2018-05-09T07:04:05.723Z,1000.28
2018-05-09T07:05:05.717Z,1000.26
2018-05-09T07:06:05.717Z,1000.31
2018-05-09T07:07:05.693Z,1000.29
2018-05-09T07:08:05.685Z,1000.29
2018-05-09T07:09:05.676Z,1000.28
2018-05-09T07:10:05.665Z,1000.27
2018-05-09T07:11:05.656Z,1000.24
2018-05-09T07:12:05.643Z,1000.24
2018-05-09T07:13:05.631Z,1000.29
2018-05-09T07:14:05.622Z,1000.32
2018-05-09T07:15:05.615Z,1000.28
2018-05-09T07:16:05.604Z,1000.27
2018-05-09T07:17:05.592Z,1000.25
2018-05-09T07:18:05.583Z,1000.26
2018-05-09T07:19:05.579Z,1000.29
2018-05-09T07:20:05.561Z,1000.26
2018-05-09T07:21:05.556Z,1000.26
2018-05-09T07:22:05.568Z,1000.23
2018-05-09T07:23:05.551Z,1000.23
2018-05-09T07:24:05.523Z,1000.28
2018-05-09T07:25:05.513Z,1000.39
2018-05-09T07:26:05.506Z,1000.52
2018-05-09T07:27:05.495Z,1000.52
2018-05-09T07:28:05.486Z,1000.53
2018-05-09T07:29:05.478Z,1000.56
2018-05-09T07:30:05.471Z,1000.58
2018-05-09T07:31:05.470Z,1000.56
2018-05-09T07:32:05.453Z,1000.57
2018-05-09T07:33:05.460Z,1000.55
2018-05-09T07:34:05.438Z,1000.52
2018-05-09T07:35:05.436Z,1000.57
2018-05-09T07:36:05.426Z,1000.55
2018-05-09T07:37:05.470Z,1000.54
2018-05-09T07:38:05.418Z,1000.55
2018-05-09T07:39:05.418Z,1000.5
2018-05-09T07:40:05.407Z,1000.47
2018-05-09T07:41:05.424Z,1000.51
2018-05-09T07:42:05.493Z,1000.46
2018-05-09T07:43:05.398Z,1000.49
2018-05-09T07:44:05.383Z,1000.47
2018-05-09T07:45:05.386Z,1000.44
2018-05-09T07:46:05.373Z,1000.41
2018-05-09T07:47:05.375Z,1000.43
2018-05-09T07:48:05.366Z,1000.39
2018-05-09T07:49:05.362Z,1000.37
2018-05-09T07:50:05.355Z,1000.41
2018-05-09T07:51:05.359Z,1000.39
2018-05-09T07:52:05.347Z,1000.33
2018-05-09T07:53:05.360Z,1000.39
2018-05-09T07:54:05.339Z,1000.38
2018-05-09T07:55:05.353Z,1000.4
2018-05-09T07:56:05.329Z,1000.43
2018-05-09T07:57:05.335Z,1000.38
2018-05-09T07:58:05.320Z,1000.34
2018-05-09T07:59:05.330Z,1000.38
2018-05-09T08:00:05.311Z,1000.4
2018-05-09T08:01:05.332Z,1000.4
2018-05-09T08:02:05.305Z,1000.36
2018-05-09T08:03:05.323Z,1000.36
2018-05-09T08:04:05.297Z,1000.4
2018-05-09T08:05:05.293Z,1000.39
2018-05-09T08:06:05.351Z,1000.48
2018-05-09T08:07:05.283Z,1000.6
2018-05-09T08:08:05.284Z,1000.64
2018-05-09T08:09:05.279Z,1000.58
2018-05-09T08:10:05.272Z,1000.64
2018-05-09T08:11:05.269Z,1000.68
2018-05-09T08:12:05.266Z,1000.69
2018-05-09T08:13:05.262Z,1000.7
2018-05-09T08:14:05.267Z,1000.73
2018-05-09T08:15:05.256Z,1000.68
2018-05-09T08:16:05.254Z,1000.66
2018-05-09T08:17:05.254Z,1000.69
2018-05-09T08:18:05.252Z,1000.67
2018-05-09T08:19:05.250Z,1000.73
2018-05-09T08:20:05.250Z,1000.68
2018-05-09T08:21:05.249Z,1000.7
2018-05-09T08:22:05.247Z,1000.78
2018-05-09T08:23:05.248Z,1000.8
2018-05-09T08:24:05.247Z,1000.77
2018-05-09T08:25:05.247Z,1000.79
2018-05-09T08:26:05.244Z,1000.76
2018-05-09T08:27:05.245Z,1000.8
2018-05-09T08:28:05.244Z,1000.74
2018-05-09T08:29:05.245Z,1000.7
2018-05-09T08:30:05.247Z,1000.64
2018-05-09T08:31:05.257Z,1000.53
2018-05-09T08:32:05.249Z,1000.49
2018-05-09T08:33:05.249Z,1000.49
2018-05-09T08:34:05.253Z,1000.61
2018-05-09T08:35:05.252Z,1000.54
2018-05-09T08:36:05.254Z,1000.52
2018-05-09T08:37:05.251Z,1000.43
2018-05-09T08:38:05.252Z,1000.47
2018-05-09T08:39:05.256Z,1000.46
2018-05-09T08:40:05.252Z,1000.5
2018-05-09T08:41:05.251Z,1000.41
2018-05-09T08:42:05.256Z,1000.47
2018-05-09T08:43:05.251Z,1000.44
2018-05-09T08:44:05.443Z,1000.46
2018-05-09T08:45:05.249Z,1000.38
2018-05-09T08:46:05.248Z,1000.44
2018-05-09T08:47:05.247Z,1000.43
2018-05-09T08:48:05.248Z,1000.43
2018-05-09T08:49:05.244Z,1000.45
2018-05-09T08:50:05.240Z,1000.42
2018-05-09T08:51:05.238Z,1000.46
2018-05-09T08:52:05.236Z,1000.47
2018-05-09T08:53:05.234Z,1000.48
2018-05-09T08:54:05.240Z,1000.45
2018-05-09T08:55:05.229Z,1000.42
2018-05-09T08:56:05.225Z,1000.49
2018-05-09T08:57:05.224Z,1000.45
2018-05-09T08:58:05.222Z,1000.49
2018-05-09T08:59:05.220Z,1000.41
2018-05-09T09:00:05.212Z,1000.41
2018-05-09T09:01:05.211Z,1000.44
2018-05-09T09:02:05.207Z,1000.4
2018-05-09T09:03:05.209Z,1000.37
2018-05-09T09:04:05.199Z,1000.4
2018-05-09T09:05:05.197Z,1000.39
2018-05-09T09:06:05.195Z,1000.39
2018-05-09T09:07:05.190Z,1000.37
2018-05-09T09:08:05.185Z,1000.34
2018-05-09T09:09:05.182Z,1000.38
2018-05-09T09:10:05.176Z,1000.36
2018-05-09T09:11:05.224Z,1000.33
2018-05-09T09:12:05.170Z,1000.33
2018-05-09T09:13:05.174Z,1000.32
2018-05-09T09:14:05.214Z,1000.26
2018-05-09T09:15:05.160Z,1000.32
2018-05-09T09:16:05.151Z,1000.28
2018-05-09T09:17:05.147Z,1000.31
2018-05-09T09:18:05.143Z,1000.34
2018-05-09T09:19:05.139Z,1000.34
2018-05-09T09:20:05.134Z,1000.27
2018-05-09T09:21:05.132Z,1000.28
2018-05-09T09:22:05.132Z,1000.27
2018-05-09T09:23:05.122Z,1000.26
2018-05-09T09:24:05.162Z,1000.24
2018-05-09T09:25:05.115Z,1000.21
2018-05-09T09:26:05.107Z,1000.17
2018-05-09T09:27:05.115Z,1000.16
2018-05-09T09:28:05.118Z,1000.2
2018-05-09T09:29:05.129Z,1000.15
2018-05-09T09:30:05.092Z,1000.15
2018-05-09T09:31:05.110Z,1000.11
2018-05-09T09:32:05.092Z,1000.09
2018-05-09T09:33:05.075Z,1000.08
2018-05-09T09:34:05.070Z,1000.06
2018-05-09T09:35:05.062Z,1000.05
2018-05-09T09:36:05.059Z,1000.02
2018-05-09T09:37:05.054Z,1000.05
2018-05-09T09:38:05.049Z,1000.07
2018-05-09T09:39:05.047Z,1000.04
2018-05-09T09:40:05.040Z,1000.06
2018-05-09T09:41:05.036Z,1000.08
2018-05-09T09:42:05.029Z,1000.06
2018-05-09T09:43:05.030Z,1000.04
2018-05-09T09:44:05.022Z,1000.03
2018-05-09T09:45:05.015Z,1000.01
2018-05-09T09:46:05.010Z,1000.05
2018-05-09T09:47:05.004Z,1000.03
2018-05-09T09:48:05.000Z,1000.04
2018-05-09T09:49:04.994Z,1000
2018-05-09T09:50:04.985Z,1000.01
2018-05-09T09:51:04.983Z,999.97
2018-05-09T09:52:04.977Z,999.99
2018-05-09T09:53:04.970Z,999.97
2018-05-09T09:54:04.969Z,999.97
2018-05-09T09:55:04.962Z,999.98
2018-05-09T09:56:04.957Z,1000
2018-05-09T09:57:04.951Z,999.97
2018-05-09T09:58:04.946Z,999.97
2018-05-09T09:59:04.943Z,1000.01
2018-05-09T10:00:04.935Z,1000.02
2018-05-09T10:01:04.932Z,999.99
2018-05-09T10:02:04.925Z,999.97
2018-05-09T10:03:04.921Z,999.94
2018-05-09T10:04:04.914Z,999.91
2018-05-09T10:05:05.111Z,999.91
2018-05-09T10:06:04.905Z,999.88
2018-05-09T10:07:04.900Z,999.88
2018-05-09T10:08:04.961Z,999.88
2018-05-09T10:09:04.889Z,999.9
2018-05-09T10:10:04.885Z,999.88
2018-05-09T10:11:04.884Z,999.82
2018-05-09T10:12:04.872Z,999.79
2018-05-09T10:13:04.867Z,999.78
2018-05-09T10:14:04.867Z,999.81
2018-05-09T10:15:04.861Z,999.78
2018-05-09T10:16:04.864Z,999.82
2018-05-09T10:17:04.852Z,999.79
2018-05-09T10:18:04.848Z,999.7
2018-05-09T10:19:04.838Z,999.86
2018-05-09T10:20:04.836Z,999.94
2018-05-09T10:21:04.831Z,1000.01
2018-05-09T10:22:04.826Z,1000.02
2018-05-09T10:23:04.826Z,1000.01
2018-05-09T10:24:04.819Z,1000.02
2018-05-09T10:25:04.817Z,1000.04
2018-05-09T10:26:04.810Z,1000.02
2018-05-09T10:27:04.808Z,1000.06
2018-05-09T10:28:04.808Z,1000.03
2018-05-09T10:29:04.805Z,999.96
2018-05-09T10:30:04.805Z,1000.03
2018-05-09T10:31:04.807Z,1000.04
2018-05-09T10:32:04.805Z,1000.04
2018-05-09T10:33:04.812Z,1000.04
2018-05-09T10:34:04.806Z,1000.02
2018-05-09T10:35:04.806Z,1000.04
2018-05-09T10:36:04.809Z,1000.02
2018-05-09T10:37:04.813Z,1000.02
2018-05-09T10:38:04.815Z,999.99
2018-05-09T10:39:04.817Z,1000.03
2018-05-09T10:40:04.821Z,999.97
2018-05-09T10:41:04.824Z,999.91
2018-05-09T10:42:04.828Z,999.87
2018-05-09T10:43:04.832Z,999.83
2018-05-09T10:44:04.836Z,999.84
2018-05-09T10:45:04.841Z,999.79
2018-05-09T10:46:04.847Z,999.8
2018-05-09T10:47:04.853Z,999.8
2018-05-09T10:48:04.859Z,999.79
2018-05-09T10:49:04.863Z,999.76
2018-05-09T10:50:04.869Z,999.74
2018-05-09T10:51:04.879Z,999.77
2018-05-09T10:52:04.879Z,999.78
2018-05-09T10:53:04.886Z,999.7
2018-05-09T10:54:04.894Z,999.74
2018-05-09T10:55:04.905Z,999.72
2018-05-09T10:56:04.902Z,999.74
2018-05-09T10:57:04.911Z,999.72
2018-05-09T10:58:04.916Z,999.73
2018-05-09T10:59:04.923Z,999.74
2018-05-09T11:00:04.928Z,999.75
2018-05-09T11:01:04.935Z,999.7
2018-05-09T11:02:04.944Z,999.71
2018-05-09T11:03:04.949Z,999.7
2018-05-09T11:04:04.956Z,999.74
2018-05-09T11:05:04.967Z,999.64
2018-05-09T11:06:04.970Z,999.68
2018-05-09T11:07:04.981Z,999.68
2018-05-09T11:08:04.985Z,999.65
2018-05-09T11:09:04.991Z,999.62
2018-05-09T11:10:04.999Z,999.62
2018-05-09T11:11:05.009Z,999.62
2018-05-09T11:12:05.018Z,999.61
2018-05-09T11:13:05.020Z,999.58
2018-05-09T11:14:05.028Z,999.62
2018-05-09T11:15:05.035Z,999.54
2018-05-09T11:16:05.044Z,999.53
2018-05-09T11:17:05.051Z,999.52
2018-05-09T11:18:05.063Z,999.51
2018-05-09T11:19:05.066Z,999.5
2018-05-09T11:20:05.074Z,999.47
2018-05-09T11:21:05.080Z,999.54
2018-05-09T11:22:05.088Z,999.5
2018-05-09T11:23:05.098Z,999.48
2018-05-09T11:24:05.104Z,999.49
2018-05-09T11:25:05.119Z,999.42
2018-05-09T11:26:05.121Z,999.46
2018-05-09T11:27:05.128Z,999.43
2018-05-09T11:28:05.142Z,999.46
2018-05-09T11:29:05.147Z,999.46
2018-05-09T11:30:05.156Z,999.44
2018-05-09T11:31:05.163Z,999.43
2018-05-09T11:32:05.168Z,999.46
2018-05-09T11:33:05.178Z,999.44
2018-05-09T11:34:05.186Z,999.5
2018-05-09T11:35:05.197Z,999.47
2018-05-09T11:36:05.210Z,999.44
2018-05-09T11:37:05.211Z,999.44
2018-05-09T11:38:05.220Z,999.43
2018-05-09T11:39:05.227Z,999.39
2018-05-09T11:40:05.239Z,999.37
2018-05-09T11:41:05.245Z,999.43
2018-05-09T11:42:05.253Z,999.44
2018-05-09T11:43:05.261Z,999.37
2018-05-09T11:44:05.269Z,999.37
2018-05-09T11:45:05.280Z,999.34
2018-05-09T11:46:05.291Z,999.35
2018-05-09T11:47:05.297Z,999.32
2018-05-09T11:48:05.305Z,999.32
2018-05-09T11:49:05.314Z,999.21
2018-05-09T11:50:05.323Z,999.24
2018-05-09T11:51:05.357Z,999.24
2018-05-09T11:52:05.342Z,999.21
2018-05-09T11:53:05.455Z,999.2
2018-05-09T11:54:05.358Z,999.19
2018-05-09T11:55:05.389Z,999.24
2018-05-09T11:56:05.371Z,999.25
2018-05-09T11:57:05.390Z,999.25
2018-05-09T11:58:05.386Z,999.25
2018-05-09T11:59:05.454Z,999.23
2018-05-09T12:00:05.404Z,999.24
2018-05-09T12:01:05.412Z,999.24
2018-05-09T12:02:05.418Z,999.19
2018-05-09T12:03:05.432Z,999.22
2018-05-09T12:04:05.433Z,999.21
2018-05-09T12:05:05.642Z,999.14
2018-05-09T12:06:05.448Z,999.16
2018-05-09T12:07:05.472Z,999.13
2018-05-09T12:08:05.470Z,999.15
2018-05-09T12:09:05.481Z,999.17
2018-05-09T12:10:05.482Z,999.13
2018-05-09T12:11:05.501Z,999.07
2018-05-09T12:12:05.501Z,999.07
2018-05-09T12:13:05.512Z,999.03
2018-05-09T12:14:05.515Z,999.07
2018-05-09T12:15:05.535Z,999.07
2018-05-09T12:16:05.531Z,999.08
2018-05-09T12:17:05.540Z,999.05
2018-05-09T12:18:05.550Z,998.91
2018-05-09T12:19:05.567Z,999.02
2018-05-09T12:20:05.566Z,998.98
2018-05-09T12:21:05.574Z,998.92
2018-05-09T12:22:05.588Z,999.07
2018-05-09T12:23:05.598Z,999.03